Time;durP1;ratioP1;P1;durP2;ratioP2;P2;SDS_P1;SDS_P2;PMS_P1;PMS_P2;Temp;Humidity;BMP_temperature;BMP_pressure;BME280_temperature;BME280_humidity;BME280_pressure;Samples;Min_cycle;Max_cycle;Signal;HPM_P1;HPM_P2
2021/05/22 00:01:42;;;;;;;26.55;17.88;;;11.60;84.00;;;;;;5075846;28;20028;-70
2021/05/22 00:04:09;;;;;;;24.48;16.35;;;11.70;84.00;;;;;;5075902;28;20039;-71
2021/05/22 00:06:35;;;;;;;25.13;16.27;;;11.70;83.90;;;;;;5078555;28;20032;-71
2021/05/22 00:09:01;;;;;;;24.40;15.43;;;11.70;83.80;;;;;;5074828;28;20028;-71
2021/05/22 00:11:28;;;;;;;24.92;15.32;;;11.80;84.00;;;;;;5074788;28;20103;-71
2021/05/22 00:13:53;;;;;;;24.05;14.63;;;11.80;84.00;;;;;;5074624;28;20395;-71
2021/05/22 00:16:19;;;;;;;25.27;15.48;;;11.80;83.80;;;;;;5076013;28;20059;-71
2021/05/22 00:18:45;;;;;;;24.40;15.02;;;11.80;83.60;;;;;;5076582;28;20017;-71
2021/05/22 00:21:10;;;;;;;21.83;14.98;;;11.80;83.60;;;;;;5074659;28;20027;-71
2021/05/22 00:23:36;;;;;;;21.70;14.38;;;11.80;83.80;;;;;;5079058;28;20036;-70
2021/05/22 00:26:02;;;;;;;25.83;15.02;;;11.80;83.80;;;;;;5075698;28;20032;-70
2021/05/22 00:28:28;;;;;;;24.90;15.25;;;11.80;83.90;;;;;;5074456;28;20379;-70
2021/05/22 00:30:54;;;;;;;23.40;13.95;;;11.80;84.20;;;;;;5074044;28;20020;-70
2021/05/22 00:33:20;;;;;;;21.98;13.90;;;11.80;84.20;;;;;;5074068;28;20025;-69
2021/05/22 00:35:45;;;;;;;22.60;14.23;;;11.80;84.00;;;;;;5074178;28;20029;-70
2021/05/22 00:38:11;;;;;;;23.80;14.48;;;11.80;84.10;;;;;;5074315;28;20028;-70
2021/05/22 00:40:36;;;;;;;24.45;15.95;;;11.80;84.10;;;;;;5074733;28;20017;-70
2021/05/22 00:43:02;;;;;;;25.50;16.17;;;11.80;84.20;;;;;;5075380;28;20024;-70
2021/05/22 00:45:28;;;;;;;28.80;16.08;;;11.80;84.40;;;;;;5075374;28;20548;-70
2021/05/22 00:47:56;;;;;;;24.27;15.13;;;11.80;84.50;;;;;;5074044;28;20097;-70
2021/05/22 00:50:25;;;;;;;25.75;15.50;;;11.80;84.50;;;;;;5074292;28;20036;-71
2021/05/22 00:52:51;;;;;;;24.02;14.82;;;11.80;84.60;;;;;;5074914;28;20043;-70
2021/05/22 00:55:17;;;;;;;23.88;13.98;;;11.70;84.70;;;;;;5075109;28;20086;-71
2021/05/22 00:57:44;;;;;;;25.63;14.40;;;11.70;84.90;;;;;;5074939;28;20463;-70
2021/05/22 01:00:19;;;;;;;27.33;14.88;;;11.70;85.00;;;;;;5075315;28;20028;-70
2021/05/22 01:02:47;;;;;;;27.92;14.98;;;11.80;85.20;;;;;;5078879;28;20028;-70
2021/05/22 01:05:14;;;;;;;23.92;15.35;;;11.80;85.20;;;;;;5074334;28;20437;-70
2021/05/22 01:07:41;;;;;;;25.13;15.30;;;11.70;85.20;;;;;;5075377;28;20374;-71
2021/05/22 01:10:07;;;;;;;23.25;14.02;;;11.80;85.60;;;;;;5074679;28;20467;-70
2021/05/22 01:12:36;;;;;;;23.35;13.85;;;11.80;85.70;;;;;;5082197;28;20119;-70
2021/05/22 01:15:09;;;;;;;19.00;13.07;;;11.80;85.70;;;;;;5074442;28;20032;-70
2021/05/22 01:17:38;;;;;;;17.85;13.07;;;11.70;85.80;;;;;;5082964;28;20064;-70
2021/05/22 01:20:11;;;;;;;21.25;12.90;;;11.80;86.10;;;;;;5076211;28;20022;-71
2021/05/22 01:22:42;;;;;;;19.05;12.82;;;11.70;86.10;;;;;;5073022;28;20060;-70
2021/05/22 01:25:33;;;;;;;19.15;13.13;;;11.70;86.20;;;;;;5073399;28;20226;-70
2021/05/22 01:28:00;;;;;;;19.27;13.40;;;11.70;86.20;;;;;;5074723;28;20106;-70
2021/05/22 01:30:27;;;;;;;20.48;12.70;;;11.70;86.20;;;;;;5074182;28;20025;-71
2021/05/22 01:32:53;;;;;;;18.13;13.63;;;11.70;86.30;;;;;;5082698;28;20027;-71
2021/05/22 01:35:19;;;;;;;18.58;13.32;;;11.60;86.30;;;;;;5072934;28;20024;-71
2021/05/22 01:37:45;;;;;;;24.00;13.75;;;11.60;86.40;;;;;;5074218;28;20029;-70
2021/05/22 01:40:12;;;;;;;17.70;13.35;;;11.60;86.60;;;;;;5073269;28;20060;-71
2021/05/22 01:42:38;;;;;;;15.90;12.40;;;11.50;86.80;;;;;;5074034;28;20043;-71
2021/05/22 01:45:09;;;;;;;17.20;13.80;;;11.40;87.10;;;;;;5084404;28;20032;-71
2021/05/22 01:47:36;;;;;;;18.42;13.10;;;11.40;87.30;;;;;;5074359;28;20508;-71
2021/05/22 01:50:05;;;;;;;19.27;14.00;;;11.40;87.20;;;;;;5072793;28;20059;-71
2021/05/22 01:52:33;;;;;;;20.20;13.60;;;11.30;87.50;;;;;;5077647;28;20028;-71
2021/05/22 01:55:02;;;;;;;22.40;14.40;;;11.20;87.50;;;;;;5072835;28;20028;-71
2021/05/22 01:57:28;;;;;;;21.15;13.70;;;11.10;88.00;;;;;;5073076;28;20028;-71
2021/05/22 01:59:54;;;;;;;20.88;14.13;;;11.10;88.50;;;;;;5072419;28;20078;-71
2021/05/22 02:02:21;;;;;;;25.27;13.88;;;11.00;88.80;;;;;;5073785;28;20458;-71
2021/05/22 02:04:48;;;;;;;22.35;14.05;;;11.00;89.00;;;;;;5073028;28;20031;-71
2021/05/22 02:07:18;;;;;;;26.05;14.43;;;10.90;89.20;;;;;;5073568;28;20028;-71
2021/05/22 02:09:47;;;;;;;30.35;15.48;;;10.90;89.50;;;;;;5073657;28;20025;-71
2021/05/22 02:12:13;;;;;;;29.35;16.27;;;10.90;89.60;;;;;;5084144;28;20488;-71
2021/05/22 02:14:41;;;;;;;32.42;18.63;;;10.90;90.00;;;;;;5077261;28;20494;-71
2021/05/22 02:17:09;;;;;;;40.95;27.10;;;10.90;89.80;;;;;;5072405;28;20135;-71
2021/05/22 02:19:37;;;;;;;42.15;26.67;;;10.90;90.10;;;;;;5072107;28;20028;-71
2021/05/22 02:22:09;;;;;;;42.03;27.42;;;10.90;90.30;;;;;;5073207;28;20029;-71
2021/05/22 02:24:36;;;;;;;37.17;24.83;;;11.00;90.10;;;;;;5071891;28;20127;-71
2021/05/22 02:27:03;;;;;;;38.38;25.75;;;11.00;90.00;;;;;;5073525;28;20043;-71
2021/05/22 02:29:30;;;;;;;41.17;26.02;;;11.00;90.10;;;;;;5071972;28;20051;-71
2021/05/22 02:31:58;;;;;;;38.85;25.10;;;10.90;90.40;;;;;;5072960;28;20034;-70
2021/05/22 02:34:35;;;;;;;39.45;24.30;;;10.90;90.60;;;;;;5072082;28;20024;-71
2021/05/22 02:37:02;;;;;;;35.45;24.20;;;10.90;90.80;;;;;;5071880;28;20123;-71
2021/05/22 02:39:30;;;;;;;40.25;23.23;;;10.90;90.70;;;;;;5083633;28;20027;-71
2021/05/22 02:42:01;;;;;;;39.67;23.67;;;10.90;90.80;;;;;;5076544;28;20032;-71
2021/05/22 02:44:29;;;;;;;33.92;22.25;;;11.00;91.10;;;;;;5072522;28;20028;-71
2021/05/22 02:46:56;;;;;;;29.40;21.20;;;11.20;92.00;;;;;;5073022;28;20017;-71
2021/05/22 02:49:28;;;;;;;30.73;19.58;;;11.60;92.50;;;;;;5072941;28;20088;-71
2021/05/22 02:52:00;;;;;;;27.45;18.48;;;12.00;92.40;;;;;;5082852;28;20475;-67
2021/05/22 02:54:27;;;;;;;24.52;13.45;;;12.40;92.00;;;;;;5071313;28;20029;-70
2021/05/22 02:56:55;;;;;;;25.45;13.05;;;12.70;91.40;;;;;;5071705;28;20021;-70
2021/05/22 02:59:22;;;;;;;24.38;16.48;;;13.10;90.90;;;;;;5071352;28;20028;-69
2021/05/22 03:01:48;;;;;;;23.40;14.43;;;13.50;89.80;;;;;;5071912;28;20027;-69
2021/05/22 03:04:14;;;;;;;20.02;13.35;;;13.80;88.50;;;;;;5072930;28;20036;-69
2021/05/22 03:06:40;;;;;;;22.35;13.38;;;14.20;86.50;;;;;;5071022;28;20027;-69
2021/05/22 03:09:06;;;;;;;21.50;11.90;;;14.50;84.60;;;;;;5080836;28;20028;-69
2021/05/22 03:11:32;;;;;;;23.25;12.65;;;14.70;82.80;;;;;;5074430;28;20101;-69
2021/05/22 03:13:57;;;;;;;23.40;13.63;;;15.00;81.70;;;;;;5073018;28;20032;-69
2021/05/22 03:16:23;;;;;;;25.30;14.13;;;15.30;80.30;;;;;;5072193;28;20072;-70
2021/05/22 03:18:49;;;;;;;29.23;13.18;;;15.60;78.70;;;;;;5072396;28;20356;-70
2021/05/22 03:21:14;;;;;;;28.60;14.18;;;15.90;77.50;;;;;;5071636;28;20579;-70
2021/05/22 03:23:40;;;;;;;26.17;12.68;;;16.10;76.10;;;;;;5072367;28;20041;-70
2021/05/22 03:26:06;;;;;;;25.17;11.82;;;16.30;75.00;;;;;;5072630;28;20100;-69
2021/05/22 03:28:32;;;;;;;26.80;13.45;;;16.60;74.50;;;;;;5070853;28;20147;-69
2021/05/22 03:30:58;;;;;;;30.80;11.52;;;16.90;73.10;;;;;;5071857;28;20432;-69
2021/05/22 03:33:24;;;;;;;26.15;12.40;;;17.20;71.90;;;;;;5072464;28;20054;-69
2021/05/22 03:35:49;;;;;;;25.00;12.10;;;17.50;70.80;;;;;;5071618;28;20020;-69
2021/05/22 03:38:15;;;;;;;22.50;10.40;;;17.70;69.80;;;;;;5072611;28;20456;-69
2021/05/22 03:40:41;;;;;;;19.90;10.90;;;18.00;69.00;;;;;;5071652;28;20025;-69
2021/05/22 03:43:07;;;;;;;21.75;11.05;;;18.20;68.20;;;;;;5072346;28;20104;-69
2021/05/22 03:45:33;;;;;;;21.30;10.23;;;18.60;67.50;;;;;;5071266;28;20059;-69
2021/05/22 03:47:58;;;;;;;19.10;10.35;;;18.90;66.50;;;;;;5072091;28;20025;-69
2021/05/22 03:50:24;;;;;;;20.13;9.55;;;19.10;65.40;;;;;;5080269;28;20033;-71
2021/05/22 03:52:50;;;;;;;17.45;9.57;;;19.40;64.70;;;;;;5073833;28;20533;-70
2021/05/22 03:55:16;;;;;;;18.25;10.38;;;19.60;63.70;;;;;;5072208;28;20474;-70
2021/05/22 03:57:41;;;;;;;19.98;10.05;;;19.70;63.00;;;;;;5072205;28;20040;-70
2021/05/22 04:00:09;;;;;;;18.75;9.40;;;19.90;62.20;;;;;;5072122;28;20095;-70
2021/05/22 04:02:34;;;;;;;13.60;9.30;;;20.20;61.40;;;;;;5070647;28;20027;-70
2021/05/22 04:05:00;;;;;;;16.92;9.82;;;20.60;60.70;;;;;;5075758;28;20036;-70
2021/05/22 04:07:26;;;;;;;22.52;10.63;;;20.90;60.00;;;;;;5083737;28;20024;-69
2021/05/22 04:09:52;;;;;;;17.83;10.60;;;21.20;60.00;;;;;;5074378;28;20024;-70
2021/05/22 04:12:18;;;;;;;19.65;10.05;;;21.40;58.40;;;;;;5085720;28;20047;-70
2021/05/22 04:14:44;;;;;;;22.15;11.43;;;21.40;58.00;;;;;;5078989;28;20132;-70
2021/05/22 04:17:09;;;;;;;19.90;11.75;;;21.60;57.80;;;;;;5075754;28;20048;-70
2021/05/22 04:19:35;;;;;;;21.33;12.23;;;21.80;57.40;;;;;;5075954;28;20035;-70
2021/05/22 04:22:01;;;;;;;23.60;11.93;;;22.10;56.70;;;;;;5074297;28;20028;-70
2021/05/22 04:24:26;;;;;;;24.10;11.43;;;22.40;55.70;;;;;;5082799;28;20128;-71
2021/05/22 04:26:52;;;;;;;21.52;12.30;;;22.70;55.20;;;;;;5075204;28;20025;-70
2021/05/22 04:29:18;;;;;;;19.45;11.40;;;23.00;54.70;;;;;;5075651;28;20032;-70
2021/05/22 04:31:43;;;;;;;20.10;11.70;;;23.30;54.00;;;;;;5075716;28;20066;-70
2021/05/22 04:34:10;;;;;;;19.45;10.77;;;23.50;53.30;;;;;;5074470;28;20060;-70
2021/05/22 04:36:35;;;;;;;16.02;9.93;;;23.60;52.70;;;;;;5075026;28;20025;-70
2021/05/22 04:39:02;;;;;;;17.90;10.80;;;23.70;52.10;;;;;;5075086;28;20085;-70
2021/05/22 04:41:27;;;;;;;18.42;11.70;;;23.90;52.20;;;;;;5074207;28;20065;-71
2021/05/22 04:43:53;;;;;;;16.95;9.38;;;24.20;51.60;;;;;;5075518;28;20024;-71
2021/05/22 04:46:18;;;;;;;18.20;10.15;;;24.50;50.70;;;;;;5075125;28;20481;-71
2021/05/22 04:48:44;;;;;;;16.65;9.50;;;24.60;50.30;;;;;;5082627;28;20030;-70
2021/05/22 04:51:12;;;;;;;14.77;8.43;;;24.80;49.60;;;;;;5075015;28;20466;-70
2021/05/22 04:53:37;;;;;;;20.13;9.95;;;24.90;49.30;;;;;;5075374;28;20039;-70
2021/05/22 04:56:03;;;;;;;19.27;9.20;;;25.00;48.90;;;;;;5073732;28;20024;-70
2021/05/22 04:58:29;;;;;;;17.98;8.93;;;25.30;48.50;;;;;;5073087;28;20051;-69
2021/05/22 05:00:55;;;;;;;19.42;8.77;;;25.40;48.00;;;;;;5073785;28;20028;-70
2021/05/22 05:03:20;;;;;;;12.52;9.00;;;25.60;47.60;;;;;;5073465;28;20550;-70
2021/05/22 05:05:46;;;;;;;12.80;9.00;;;25.80;47.00;;;;;;5074921;28;20100;-70
2021/05/22 05:08:20;;;;;;;15.93;8.77;;;26.20;46.90;;;;;;5073365;28;20028;-70
2021/05/22 05:10:49;;;;;;;13.55;7.72;;;26.50;46.10;;;;;;5073428;28;20039;-69
2021/05/22 05:13:16;;;;;;;12.98;7.90;;;26.70;45.60;;;;;;5074876;28;20371;-70
2021/05/22 05:15:42;;;;;;;13.57;7.93;;;26.80;45.20;;;;;;5073448;28;20082;-70
2021/05/22 05:18:08;;;;;;;14.38;8.38;;;27.10;44.80;;;;;;5073328;28;20082;-69
2021/05/22 05:20:33;;;;;;;14.55;8.80;;;27.30;44.70;;;;;;5072992;28;20483;-68
2021/05/22 05:23:00;;;;;;;16.55;8.73;;;27.60;44.30;;;;;;5072955;28;20463;-69
2021/05/22 05:25:26;;;;;;;11.45;7.93;;;27.90;44.30;;;;;;5074157;28;20032;-69
2021/05/22 05:27:51;;;;;;;13.10;7.90;;;27.90;43.30;;;;;;5074506;28;20036;-68
2021/05/22 05:30:18;;;;;;;11.43;7.10;;;28.10;42.60;;;;;;5075847;28;20458;-69
2021/05/22 05:32:44;;;;;;;12.40;6.55;;;28.30;42.40;;;;;;5073940;28;20020;-69
2021/05/22 05:35:10;;;;;;;15.25;7.50;;;28.30;42.40;;;;;;5072703;28;20035;-69
2021/05/22 05:37:38;;;;;;;13.95;6.35;;;28.60;42.30;;;;;;5074092;28;20029;-69
2021/05/22 05:40:04;;;;;;;11.30;6.82;;;28.80;42.20;;;;;;5074373;28;20029;-69
2021/05/22 05:42:30;;;;;;;8.60;6.43;;;28.70;41.70;;;;;;5073174;28;20039;-69
2021/05/22 05:44:56;;;;;;;10.00;6.38;;;28.90;41.80;;;;;;5074247;28;20028;-68
2021/05/22 05:47:22;;;;;;;10.98;6.32;;;29.10;41.80;;;;;;5078906;28;20471;-70
2021/05/22 05:49:47;;;;;;;11.35;5.93;;;29.20;41.80;;;;;;5072705;28;20031;-70
2021/05/22 05:52:13;;;;;;;9.07;6.28;;;29.40;41.40;;;;;;5080858;28;20029;-69
2021/05/22 05:54:39;;;;;;;11.02;7.00;;;29.50;41.10;;;;;;5073308;28;20360;-69
2021/05/22 05:57:05;;;;;;;9.07;6.07;;;29.60;41.10;;;;;;5074136;28;20033;-69
2021/05/22 05:59:30;;;;;;;11.75;6.43;;;29.50;41.00;;;;;;5073589;28;20115;-70
2021/05/22 06:01:56;;;;;;;9.63;5.90;;;29.60;41.20;;;;;;5072703;28;20024;-69
2021/05/22 06:04:22;;;;;;;7.15;4.88;;;29.80;40.30;;;;;;5072608;28;20039;-70
2021/05/22 06:06:49;;;;;;;7.60;5.30;;;30.10;39.60;;;;;;5071590;28;20118;-69
2021/05/22 06:09:15;;;;;;;6.43;4.70;;;30.20;38.70;;;;;;5072376;28;20046;-69
2021/05/22 06:11:41;;;;;;;12.80;6.18;;;30.20;38.70;;;;;;5072171;28;20093;-69
2021/05/22 06:14:13;;;;;;;6.88;4.15;;;30.20;38.40;;;;;;5072246;28;20460;-70
2021/05/22 06:16:40;;;;;;;6.07;4.03;;;30.20;38.00;;;;;;5074548;28;20045;-69
2021/05/22 06:19:06;;;;;;;6.65;3.67;;;30.20;38.00;;;;;;5073308;28;20036;-70
2021/05/22 06:21:35;;;;;;;6.57;3.67;;;30.20;37.70;;;;;;5073067;28;20033;-69
2021/05/22 06:24:01;;;;;;;5.00;2.97;;;30.20;36.50;;;;;;5073384;28;20036;-70
2021/05/22 06:26:27;;;;;;;5.13;2.65;;;30.20;36.30;;;;;;5071065;28;20024;-69
2021/05/22 06:28:52;;;;;;;3.55;2.60;;;30.00;36.00;;;;;;5071998;28;20038;-69
2021/05/22 06:31:18;;;;;;;3.53;2.85;;;30.10;36.00;;;;;;5071915;28;20040;-69
2021/05/22 06:33:44;;;;;;;5.45;2.80;;;30.20;36.50;;;;;;5071601;28;20047;-69
2021/05/22 06:36:09;;;;;;;6.85;2.55;;;30.30;36.50;;;;;;5073721;28;20063;-70
2021/05/22 06:38:35;;;;;;;5.38;2.50;;;30.40;36.20;;;;;;5071429;28;20124;-70
2021/05/22 06:41:01;;;;;;;4.40;2.50;;;30.40;36.10;;;;;;5071807;28;20082;-70
2021/05/22 06:43:27;;;;;;;7.38;2.95;;;30.60;35.30;;;;;;5082228;28;20027;-70
2021/05/22 06:46:01;;;;;;;5.57;2.30;;;30.80;35.20;;;;;;5071805;28;20047;-70
2021/05/22 06:48:27;;;;;;;4.30;2.67;;;31.00;33.70;;;;;;5071278;28;20050;-70
2021/05/22 06:50:53;;;;;;;6.03;2.60;;;30.90;33.60;;;;;;5072648;28;20024;-69
2021/05/22 06:53:19;;;;;;;6.10;3.20;;;30.80;33.90;;;;;;5072962;28;20467;-69
2021/05/22 06:55:45;;;;;;;8.65;3.22;;;30.90;33.40;;;;;;5078804;28;20025;-69
2021/05/22 06:58:11;;;;;;;5.32;2.97;;;30.90;34.60;;;;;;5071443;28;20032;-69
2021/05/22 07:00:37;;;;;;;3.88;2.60;;;30.90;33.40;;;;;;5071184;28;20509;-69
2021/05/22 07:03:03;;;;;;;7.78;2.50;;;31.00;33.30;;;;;;5072464;28;20087;-70
2021/05/22 07:05:28;;;;;;;5.05;3.10;;;31.20;33.20;;;;;;5072845;28;20036;-69
2021/05/22 07:07:55;;;;;;;7.22;3.08;;;31.30;32.80;;;;;;5071404;28;20459;-69
2021/05/22 07:10:21;;;;;;;6.82;2.35;;;31.30;32.90;;;;;;5072915;28;20044;-69
2021/05/22 07:12:47;;;;;;;12.60;3.40;;;31.30;32.80;;;;;;5072367;28;20048;-69
2021/05/22 07:15:13;;;;;;;3.97;2.00;;;31.60;32.80;;;;;;5071245;28;20462;-69
2021/05/22 07:17:38;;;;;;;3.70;1.90;;;31.90;32.20;;;;;;5071294;28;20109;-70
2021/05/22 07:20:06;;;;;;;3.78;1.40;;;31.80;31.50;;;;;;5072394;28;20066;-70
2021/05/22 07:22:33;;;;;;;3.45;1.20;;;31.60;30.50;;;;;;5072468;28;20032;-69
2021/05/22 07:24:59;;;;;;;3.53;1.88;;;31.30;30.00;;;;;;5075135;28;20063;-69
2021/05/22 07:27:25;;;;;;;2.63;1.55;;;31.10;30.00;;;;;;5071381;28;20024;-69
2021/05/22 07:29:51;;;;;;;4.22;2.33;;;31.20;30.90;;;;;;5072742;28;20028;-69
2021/05/22 07:32:17;;;;;;;7.80;5.68;;;31.20;30.80;;;;;;5072596;28;20070;-68
2021/05/22 07:34:43;;;;;;;5.82;1.40;;;31.30;31.30;;;;;;5070992;28;20029;-68
2021/05/22 07:37:09;;;;;;;7.60;2.05;;;31.30;30.70;;;;;;5072430;28;20025;-69
2021/05/22 07:39:35;;;;;;;3.38;1.85;;;31.10;31.60;;;;;;5074681;28;20486;-69
2021/05/22 07:42:01;;;;;;;6.03;4.15;;;31.00;30.20;;;;;;5079272;28;20383;-71
2021/05/22 07:44:27;;;;;;;5.68;2.88;;;31.00;30.10;;;;;;5075663;28;20056;-69
2021/05/22 07:46:52;;;;;;;6.18;2.63;;;31.20;30.20;;;;;;5085139;28;20055;-69
2021/05/22 07:49:18;;;;;;;5.50;2.38;;;31.30;29.90;;;;;;5076208;28;20031;-69
2021/05/22 07:51:45;;;;;;;10.77;4.85;;;31.50;30.00;;;;;;5087657;28;20108;-69
2021/05/22 07:54:11;;;;;;;2.78;1.60;;;31.60;29.30;;;;;;5076109;28;20032;-71
2021/05/22 07:56:37;;;;;;;1.65;1.10;;;31.70;28.50;;;;;;5075613;28;20103;-69
2021/05/22 07:59:03;;;;;;;6.53;4.15;;;31.70;28.00;;;;;;5076056;28;20020;-69
2021/05/22 08:01:31;;;;;;;3.30;1.45;;;31.40;28.10;;;;;;5076078;28;20371;-69
2021/05/22 08:03:57;;;;;;;3.88;2.40;;;31.20;28.30;;;;;;5084523;28;20543;-69
2021/05/22 08:06:23;;;;;;;4.20;1.77;;;31.00;29.50;;;;;;5075912;28;20069;-69
2021/05/22 08:08:48;;;;;;;3.15;2.13;;;30.80;30.20;;;;;;5075652;28;20053;-68
2021/05/22 08:11:14;;;;;;;2.55;1.75;;;30.60;30.40;;;;;;5075700;28;20379;-69
2021/05/22 08:13:41;;;;;;;2.22;1.60;;;30.40;29.90;;;;;;5074560;28;20386;-69
2021/05/22 08:16:07;;;;;;;2.88;1.00;;;30.30;29.90;;;;;;5074552;28;20498;-69
2021/05/22 08:18:33;;;;;;;1.85;1.15;;;30.20;29.10;;;;;;5075582;28;20104;-69
2021/05/22 08:20:59;;;;;;;1.63;1.05;;;30.10;28.90;;;;;;5075964;28;20441;-69
2021/05/22 08:23:24;;;;;;;1.10;1.00;;;30.10;29.00;;;;;;5074187;28;20094;-69
2021/05/22 08:25:50;;;;;;;3.10;1.50;;;30.20;28.80;;;;;;5074307;28;20048;-69
2021/05/22 08:28:22;;;;;;;4.60;2.22;;;30.30;29.30;;;;;;5075242;28;20052;-69
2021/05/22 08:30:51;;;;;;;3.20;1.00;;;30.50;29.60;;;;;;5073887;28;20024;-69
2021/05/22 08:33:16;;;;;;;3.83;1.42;;;30.80;28.60;;;;;;5075354;28;20025;-69
2021/05/22 08:35:43;;;;;;;5.72;4.15;;;30.80;28.60;;;;;;5075454;28;20016;-69
2021/05/22 08:38:09;;;;;;;3.10;1.27;;;30.90;29.30;;;;;;5074170;28;20037;-69
2021/05/22 08:40:35;;;;;;;2.58;0.90;;;31.00;28.50;;;;;;5075759;28;20016;-69
2021/05/22 08:43:01;;;;;;;3.63;1.38;;;30.80;28.20;;;;;;5073898;28;20024;-69
2021/05/22 08:45:29;;;;;;;2.05;0.75;;;30.60;29.00;;;;;;5082265;28;20127;-69
2021/05/22 08:47:56;;;;;;;5.78;4.15;;;30.60;28.20;;;;;;5074871;28;20024;-69
2021/05/22 08:50:22;;;;;;;3.47;2.13;;;30.40;29.50;;;;;;5083228;28;20028;-69
2021/05/22 08:52:49;;;;;;;4.95;2.63;;;30.60;29.00;;;;;;5076530;28;20052;-68
2021/05/22 08:55:16;;;;;;;5.55;4.68;;;30.80;28.50;;;;;;5073723;28;20107;-69
2021/05/22 08:57:42;;;;;;;2.20;1.63;;;30.90;28.10;;;;;;5075166;28;20032;-68
2021/05/22 09:00:12;;;;;;;7.47;4.32;;;30.90;27.80;;;;;;5074059;28;20024;-68
2021/05/22 09:02:38;;;;;;;5.57;2.08;;;31.20;28.70;;;;;;5074652;28;20032;-68
2021/05/22 09:05:13;;;;;;;4.35;1.38;;;31.30;29.10;;;;;;5073438;28;20064;-69
2021/05/22 09:07:42;;;;;;;;;;;31.60;28.40;;;;;;5075425;28;20036;-68
2021/05/22 09:10:16;;;;;;;4.13;1.67;;;31.80;28.80;;;;;;5073265;28;19962;-68
2021/05/22 09:12:46;;;;;;;5.43;2.00;;;31.80;28.20;;;;;;5074629;28;20402;-68
2021/05/22 09:15:13;;;;;;;5.55;1.80;;;31.80;28.30;;;;;;5073353;28;20029;-68
2021/05/22 09:17:47;;;;;;;8.13;2.97;;;32.00;28.10;;;;;;5073299;28;20125;-69
2021/05/22 09:20:34;;;;;;;4.95;2.22;;;32.00;28.00;;;;;;5073206;28;20486;-69
2021/05/22 09:23:07;;;;;;;4.68;1.70;;;32.00;28.50;;;;;;5073727;28;20033;-69
2021/05/22 09:25:45;;;;;;;7.65;5.25;;;32.10;28.20;;;;;;5073153;28;20036;-68
2021/05/22 09:28:12;;;;;;;5.97;2.08;;;32.20;28.10;;;;;;5074795;28;20021;-69
2021/05/22 09:30:40;;;;;;;2.55;2.20;;;32.40;28.50;;;;;;5073805;28;20510;-68
2021/05/22 09:33:14;;;;;;;3.97;1.95;;;32.40;27.80;;;;;;5072927;28;20020;-69
2021/05/22 09:35:41;;;;;;;3.72;2.13;;;32.30;28.10;;;;;;5074023;28;20063;-69
2021/05/22 09:38:07;;;;;;;2.95;1.70;;;32.30;28.50;;;;;;5074462;28;20043;-69
2021/05/22 09:40:36;;;;;;;3.38;1.73;;;32.30;28.90;;;;;;5073512;28;20375;-69
2021/05/22 09:43:07;;;;;;;5.45;2.33;;;32.30;27.90;;;;;;5072842;28;20035;-69
2021/05/22 09:45:39;;;;;;;6.93;2.17;;;32.30;28.10;;;;;;5072688;28;20057;-69
2021/05/22 09:48:11;;;;;;;5.15;1.90;;;32.10;27.90;;;;;;5074069;28;20108;-69
2021/05/22 09:50:39;;;;;;;6.60;1.50;;;32.10;28.60;;;;;;5072626;28;20025;-70
2021/05/22 09:53:29;;;;;;;2.95;1.50;;;32.10;28.20;;;;;;5073524;28;20032;-69
2021/05/22 09:56:14;;;;;;;5.22;1.85;;;31.90;28.10;;;;;;5073628;28;20032;-70
2021/05/22 09:58:54;;;;;;;3.70;2.38;;;31.80;28.00;;;;;;5073832;28;20024;-70
2021/05/22 10:01:31;;;;;;;11.65;3.17;;;31.40;28.30;;;;;;5073051;28;20067;-69
2021/05/22 10:04:16;;;;;;;10.07;2.70;;;31.40;28.30;;;;;;5072411;28;20033;-69
2021/05/22 10:06:42;;;;;;;4.70;2.03;;;31.30;28.30;;;;;;5073105;28;20037;-70
2021/05/22 10:09:20;;;;;;;5.28;2.20;;;31.10;28.00;;;;;;5072482;28;20527;-70
2021/05/22 10:12:05;;;;;;;3.75;2.13;;;31.00;28.30;;;;;;5072495;28;20103;-69
2021/05/22 10:14:36;;;;;;;2.72;1.90;;;30.80;28.10;;;;;;5073041;28;20042;-70
2021/05/22 10:17:03;;;;;;;4.03;1.98;;;30.50;28.40;;;;;;5072253;28;20098;-69
2021/05/22 10:19:31;;;;;;;7.68;3.20;;;30.20;28.40;;;;;;5072116;28;20029;-69
2021/05/22 10:21:58;;;;;;;10.48;8.32;;;29.90;28.60;;;;;;5071968;28;20028;-69
2021/05/22 10:24:24;;;;;;;2.05;1.75;;;29.70;29.30;;;;;;5072122;28;20029;-69
2021/05/22 10:26:51;;;;;;;5.00;2.40;;;29.60;29.50;;;;;;5073063;28;21116;-69
2021/05/22 10:29:17;;;;;;;5.88;4.95;;;29.50;29.40;;;;;;5073054;28;20105;-69
2021/05/22 10:31:43;;;;;;;7.47;2.28;;;29.20;29.80;;;;;;5073256;28;20029;-69
2021/05/22 10:34:14;;;;;;;4.03;1.60;;;29.40;30.20;;;;;;5085133;28;20035;-70
2021/05/22 10:36:54;;;;;;;2.65;1.75;;;29.60;30.00;;;;;;5077590;28;20032;-69
2021/05/22 10:39:40;;;;;;;2.53;1.67;;;29.60;29.60;;;;;;5071996;28;20025;-69
2021/05/22 10:42:26;;;;;;;1.73;1.40;;;29.30;29.60;;;;;;5073001;28;20074;-69
2021/05/22 10:44:52;;;;;;;2.88;1.40;;;29.10;29.70;;;;;;5071539;28;20371;-69
2021/05/22 10:47:20;;;;;;;3.95;1.63;;;28.90;30.00;;;;;;5078718;28;20025;-70
2021/05/22 10:49:57;;;;;;;3.65;1.92;;;29.00;30.50;;;;;;5072782;28;20442;-70
2021/05/22 10:52:30;;;;;;;4.82;2.00;;;29.10;30.70;;;;;;5073127;28;20140;-69
2021/05/22 10:55:03;;;;;;;5.35;2.08;;;29.20;30.30;;;;;;5074959;28;20433;-69
2021/05/22 10:57:29;;;;;;;3.97;2.38;;;29.20;30.60;;;;;;5073034;28;20028;-69
2021/05/22 11:00:13;;;;;;;4.15;2.60;;;29.30;30.60;;;;;;5072307;28;20579;-70
2021/05/22 11:02:42;;;;;;;6.70;2.90;;;28.90;30.30;;;;;;5072434;28;20032;-69
2021/05/22 11:05:28;;;;;;;7.50;2.58;;;28.70;30.00;;;;;;5073095;28;20040;-69
2021/05/22 11:08:03;;;;;;;5.72;2.85;;;28.30;30.20;;;;;;5071572;28;20485;-69
2021/05/22 11:10:42;;;;;;;3.70;2.40;;;27.90;30.00;;;;;;5072510;28;20036;-69
2021/05/22 11:13:10;;;;;;;7.30;2.40;;;27.50;30.00;;;;;;5070941;28;20032;-69
2021/05/22 11:15:54;;;;;;;3.83;1.95;;;27.10;30.40;;;;;;5071542;28;20047;-69
2021/05/22 11:18:23;;;;;;;3.72;1.75;;;26.70;30.50;;;;;;5071279;28;20043;-69
2021/05/22 11:21:10;;;;;;;3.30;1.50;;;26.20;30.40;;;;;;5082017;28;20025;-69
2021/05/22 11:23:57;;;;;;;3.72;1.85;;;25.80;30.90;;;;;;5071369;28;20497;-69
2021/05/22 11:26:45;;;;;;;2.95;2.00;;;25.40;30.70;;;;;;5071609;28;20039;-69
2021/05/22 11:29:11;;;;;;;3.78;1.58;;;25.10;31.90;;;;;;5083417;28;20036;-69
2021/05/22 11:31:37;;;;;;;3.75;1.55;;;24.90;31.90;;;;;;5072232;28;20066;-69
2021/05/22 11:34:22;;;;;;;4.18;2.20;;;24.70;32.40;;;;;;5071195;28;20052;-69
2021/05/22 11:37:09;;;;;;;3.35;2.00;;;24.50;33.10;;;;;;5072293;28;20044;-69
2021/05/22 11:39:41;;;;;;;9.23;6.18;;;24.30;33.20;;;;;;5072507;28;20086;-71
2021/05/22 11:42:33;;;;;;;7.80;6.57;;;24.30;33.70;;;;;;5070906;28;20367;-69
2021/05/22 11:45:01;;;;;;;15.35;7.57;;;24.30;33.70;;;;;;5076093;28;20100;-70
2021/05/22 11:47:35;;;;;;;3.60;2.13;;;24.30;33.80;;;;;;5071110;28;20025;-70
2021/05/22 11:50:03;;;;;;;6.30;1.52;;;24.40;33.90;;;;;;5072534;28;20020;-71
2021/05/22 11:52:34;;;;;;;3.97;2.42;;;24.30;33.90;;;;;;5071847;28;20021;-71
2021/05/22 11:55:15;;;;;;;3.20;1.70;;;24.20;33.80;;;;;;5074602;28;20107;-71
2021/05/22 11:57:41;;;;;;;3.83;3.10;;;24.00;33.80;;;;;;5071347;28;20447;-71
2021/05/22 12:00:08;;;;;;;4.43;3.08;;;23.90;33.70;;;;;;5071252;28;20052;-71
2021/05/22 12:02:38;;;;;;;3.88;2.45;;;23.90;34.20;;;;;;5070407;28;20028;-71
2021/05/22 12:05:05;;;;;;;3.63;1.63;;;23.80;33.70;;;;;;5071985;28;20522;-71
2021/05/22 12:07:51;;;;;;;3.05;1.70;;;23.70;33.50;;;;;;5071370;28;20170;-72
2021/05/22 12:10:18;;;;;;;6.68;1.35;;;23.60;34.30;;;;;;5101876;28;20406;-69
2021/05/22 12:12:44;;;;;;;5.60;1.70;;;23.40;34.70;;;;;;5077982;28;20083;-69
2021/05/22 12:15:30;;;;;;;1.83;1.10;;;23.40;35.30;;;;;;5071892;28;20458;-69
2021/05/22 12:18:00;;;;;;;5.95;2.88;;;23.30;34.60;;;;;;5076675;28;20486;-69
2021/05/22 12:20:27;;;;;;;1.50;1.30;;;23.20;34.80;;;;;;5070599;28;20033;-70
2021/05/22 12:22:54;;;;;;;3.10;1.33;;;23.20;34.20;;;;;;5071132;28;20040;-69
2021/05/22 12:25:20;;;;;;;2.45;1.20;;;23.20;33.60;;;;;;5074412;28;20024;-69
2021/05/22 12:27:46;;;;;;;1.90;1.20;;;23.20;33.60;;;;;;5075586;28;20381;-70
2021/05/22 12:30:14;;;;;;;2.38;1.25;;;23.10;33.00;;;;;;5077493;28;20111;-69
2021/05/22 12:32:39;;;;;;;2.35;1.67;;;23.00;32.90;;;;;;5075055;28;20018;-69
2021/05/22 12:35:08;;;;;;;3.05;1.25;;;23.00;32.90;;;;;;5074086;28;20025;-69
2021/05/22 12:37:34;;;;;;;4.85;1.30;;;23.00;32.60;;;;;;5074206;28;20032;-69
2021/05/22 12:40:06;;;;;;;3.05;1.60;;;22.90;32.70;;;;;;5074159;28;20060;-69
2021/05/22 12:42:37;;;;;;;3.05;1.25;;;22.90;33.00;;;;;;5074647;28;20029;-70
2021/05/22 12:45:08;;;;;;;3.05;1.30;;;22.90;32.80;;;;;;5075517;28;20417;-69